createdAt,value
2023-12-12T00:01:09.548Z,97357.03
2023-12-12T00:03:36.615Z,97336.50
2023-12-12T00:06:03.730Z,97301.97
2023-12-12T00:08:30.702Z,97284.19
2023-12-12T00:10:57.617Z,97322.09
2023-12-12T00:13:24.594Z,97356.47
2023-12-12T00:15:51.588Z,97345.50
2023-12-12T00:18:18.602Z,97278.84
2023-12-12T00:20:46.177Z,97217.41
2023-12-12T00:23:13.103Z,97246.69
2023-12-12T00:25:40.058Z,97193.22
2023-12-12T00:28:07.113Z,97154.69
2023-12-12T00:30:34.436Z,97110.22
2023-12-12T00:33:01.454Z,97109.03
2023-12-12T00:35:28.501Z,97064.88
2023-12-12T00:37:55.416Z,97023.34
2023-12-12T00:40:22.415Z,96965.63
2023-12-12T00:42:49.528Z,96947.38
2023-12-12T00:45:17.076Z,96978.88
2023-12-12T00:47:44.141Z,96957.97
2023-12-12T00:50:11.396Z,96897.66
2023-12-12T00:52:38.460Z,96883.94
2023-12-12T00:55:05.758Z,96963.16
2023-12-12T00:57:33.002Z,97062.03
2023-12-12T01:00:00.355Z,97070.44
2023-12-12T01:02:27.370Z,96951.56
2023-12-12T01:04:54.686Z,96968.00
2023-12-12T01:07:21.835Z,97100.38
2023-12-12T01:09:48.963Z,97141.41
2023-12-12T01:12:15.898Z,97081.09
2023-12-12T01:14:42.854Z,97059.44
2023-12-12T01:17:09.893Z,97007.28
2023-12-12T01:19:36.849Z,96859.88
2023-12-12T01:22:03.887Z,96790.41
2023-12-12T01:24:31.435Z,96765.34
2023-12-12T01:26:58.356Z,96798.16
2023-12-12T01:29:25.342Z,96876.06
2023-12-12T01:31:52.399Z,96823.50
2023-12-12T01:34:19.518Z,96774.50
2023-12-12T01:36:47.080Z,96732.38
2023-12-12T01:39:14.039Z,96705.00
2023-12-12T01:41:40.951Z,96742.28
2023-12-12T01:44:07.954Z,96718.38
2023-12-12T01:46:36.693Z,96768.75
2023-12-12T01:49:03.954Z,96799.38
2023-12-12T01:51:31.187Z,96752.34
2023-12-12T01:53:59.064Z,96773.28
2023-12-12T01:56:26.408Z,96800.53
2023-12-12T01:58:54.516Z,96776.97
2023-12-12T02:01:22.302Z,96741.41
2023-12-12T02:03:50.851Z,96711.84
2023-12-12T02:06:23.255Z,96774.78
2023-12-12T02:08:51.078Z,96790.38
2023-12-12T02:11:18.229Z,96783.84
2023-12-12T02:13:45.320Z,96743.59
2023-12-12T02:16:13.534Z,96755.22
2023-12-12T02:18:40.734Z,96717.59
2023-12-12T02:21:07.912Z,96694.03
2023-12-12T02:23:34.848Z,96690.06
2023-12-12T02:26:03.164Z,96642.81
2023-12-12T02:28:30.605Z,96653.47
2023-12-12T02:30:59.612Z,96700.63
2023-12-12T02:33:26.711Z,96734.00
2023-12-12T02:35:53.690Z,96767.69
2023-12-12T02:38:20.659Z,96784.38
2023-12-12T02:40:47.559Z,96799.16
2023-12-12T02:43:14.595Z,96770.03
2023-12-12T02:45:41.620Z,96751.66
2023-12-12T02:48:08.664Z,96773.31
2023-12-12T02:50:35.679Z,96805.47
2023-12-12T02:53:02.891Z,96828.44
2023-12-12T02:55:29.935Z,96843.22
2023-12-12T02:57:57.046Z,96859.06
2023-12-12T03:00:24.215Z,96845.66
2023-12-12T03:02:51.199Z,96881.75
2023-12-12T03:05:18.239Z,96932.59
2023-12-12T03:07:45.224Z,96933.38
2023-12-12T03:10:12.289Z,96988.63
2023-12-12T03:12:39.348Z,97075.13
2023-12-12T03:15:06.510Z,97117.38
2023-12-12T03:17:33.757Z,97164.25
2023-12-12T03:20:01.123Z,97223.78
2023-12-12T03:22:28.277Z,97294.97
2023-12-12T03:24:55.427Z,97291.94
2023-12-12T03:27:22.330Z,97276.84
2023-12-12T03:29:49.305Z,97292.34
2023-12-12T03:32:16.242Z,97293.63
2023-12-12T03:34:43.296Z,97270.19
2023-12-12T03:37:10.389Z,97266.03
2023-12-12T03:39:38.724Z,97248.59
2023-12-12T03:42:05.801Z,97237.25
2023-12-12T03:44:32.691Z,97247.03
2023-12-12T03:46:59.641Z,97244.44
2023-12-12T03:49:26.725Z,97214.81
2023-12-12T03:51:53.669Z,97269.56
2023-12-12T03:54:20.610Z,97343.88
2023-12-12T03:56:47.546Z,97389.63
2023-12-12T03:59:14.435Z,97424.53
2023-12-12T04:01:41.569Z,97396.28
2023-12-12T04:04:08.592Z,97347.38
2023-12-12T04:06:35.589Z,97272.19
2023-12-12T04:09:02.501Z,97270.06
2023-12-12T04:11:29.448Z,97269.25
2023-12-12T04:13:56.758Z,97274.19
2023-12-12T04:16:23.665Z,97224.69
2023-12-12T04:18:50.634Z,97170.06
2023-12-12T04:21:17.602Z,97214.22
2023-12-12T04:23:44.681Z,97317.97
2023-12-12T04:26:12.253Z,97326.13
2023-12-12T04:28:39.263Z,97300.75
2023-12-12T04:31:06.332Z,97347.63
2023-12-12T04:33:33.315Z,97304.16
2023-12-12T04:36:00.673Z,97306.53
2023-12-12T04:38:27.624Z,97360.09
2023-12-12T04:40:54.736Z,97401.31
2023-12-12T04:43:21.692Z,97407.28
2023-12-12T04:45:48.652Z,97417.22
2023-12-12T04:48:16.540Z,97371.84
2023-12-12T04:50:43.613Z,97296.03
2023-12-12T04:53:10.534Z,97305.59
2023-12-12T04:55:37.582Z,97317.50
2023-12-12T04:58:04.842Z,97303.47
2023-12-12T05:00:31.870Z,97355.16
2023-12-12T05:02:58.957Z,97347.63
2023-12-12T05:05:25.938Z,97294.59
2023-12-12T05:07:53.238Z,97265.53
2023-12-12T05:10:20.359Z,97255.97
2023-12-12T05:12:47.418Z,97262.94
2023-12-12T05:15:14.400Z,97280.78
2023-12-12T05:17:41.626Z,97299.31
2023-12-12T05:20:11.099Z,97357.53
2023-12-12T05:22:38.268Z,97346.53
2023-12-12T05:25:06.496Z,97390.22
2023-12-12T05:27:33.794Z,97332.75
2023-12-12T05:30:00.904Z,97296.25
2023-12-12T05:32:27.993Z,97285.28
2023-12-12T05:34:55.109Z,97219.56
2023-12-12T05:37:22.225Z,97089.63
2023-12-12T05:39:49.373Z,97155.13
2023-12-12T05:42:16.379Z,97128.09
2023-12-12T05:44:43.269Z,97115.94
2023-12-12T05:47:10.795Z,97130.25
2023-12-12T05:49:38.120Z,97103.16
2023-12-12T05:52:05.736Z,97088.19
2023-12-12T05:54:32.765Z,97051.88
2023-12-12T05:57:00.671Z,97045.94
2023-12-12T05:59:27.651Z,96982.03
2023-12-12T06:01:54.725Z,96961.69
2023-12-12T06:04:21.924Z,96927.72
2023-12-12T06:06:49.013Z,96839.50
2023-12-12T06:09:18.417Z,96836.69
2023-12-12T06:11:45.465Z,96847.66
2023-12-12T06:14:13.539Z,96819.91
2023-12-12T06:16:40.670Z,96829.91
2023-12-12T06:19:07.907Z,96837.06
2023-12-12T06:21:35.105Z,96827.94
2023-12-12T06:24:03.675Z,96893.22
2023-12-12T06:26:31.428Z,96905.28
2023-12-12T06:28:58.523Z,96920.66
2023-12-12T06:31:25.490Z,96861.00
2023-12-12T06:33:53.312Z,96843.69
2023-12-12T06:36:20.680Z,96863.59
2023-12-12T06:38:47.671Z,96791.38
2023-12-12T06:41:14.708Z,96787.78
2023-12-12T06:43:41.932Z,96762.56
2023-12-12T06:46:09.512Z,96758.69
2023-12-12T06:48:38.476Z,96773.94
2023-12-12T06:51:06.101Z,96759.06
2023-12-12T06:53:33.393Z,96788.63
2023-12-12T06:56:00.591Z,96790.72
2023-12-12T06:58:27.584Z,96828.84
2023-12-12T07:00:54.692Z,96807.50
2023-12-12T07:03:23.257Z,96834.66
2023-12-12T07:05:54.201Z,96868.69
2023-12-12T07:08:21.338Z,96844.13
2023-12-12T07:10:48.990Z,96861.19
2023-12-12T07:13:16.094Z,96821.44
2023-12-12T07:15:43.085Z,96795.34
2023-12-12T07:18:12.368Z,96883.34
2023-12-12T07:20:39.726Z,96931.34
2023-12-12T07:23:06.793Z,96925.19
2023-12-12T07:25:34.017Z,96888.94
2023-12-12T07:28:01.243Z,96897.63
2023-12-12T07:30:30.915Z,96807.00
2023-12-12T07:32:58.086Z,96839.78
2023-12-12T07:35:25.617Z,96856.28
2023-12-12T07:37:52.578Z,96892.31
2023-12-12T07:40:19.721Z,96849.19
2023-12-12T07:42:50.132Z,96885.50
2023-12-12T07:45:17.134Z,96832.38
2023-12-12T07:47:44.795Z,96901.41
2023-12-12T07:50:12.127Z,97033.22
2023-12-12T07:52:39.601Z,96869.47
2023-12-12T07:55:07.454Z,96747.56
2023-12-12T07:57:34.865Z,96706.69
2023-12-12T08:00:02.114Z,96680.31
2023-12-12T08:02:29.038Z,96653.28
2023-12-12T08:04:56.207Z,96648.56
2023-12-12T08:07:24.322Z,96685.72
2023-12-12T08:09:51.514Z,96675.75
2023-12-12T08:12:18.615Z,96669.03
2023-12-12T08:14:47.530Z,96641.88
2023-12-12T08:17:16.174Z,96684.59
2023-12-12T08:19:43.535Z,96680.97
2023-12-12T08:22:10.677Z,96690.78
2023-12-12T08:24:38.019Z,96645.63
2023-12-12T08:27:05.033Z,96611.56
2023-12-12T08:29:32.663Z,96603.03
2023-12-12T08:31:59.868Z,96679.34
2023-12-12T08:34:26.927Z,96663.00
2023-12-12T08:36:53.960Z,96640.69
2023-12-12T08:39:20.932Z,96630.03
2023-12-12T08:41:47.927Z,96607.03
2023-12-12T08:44:14.881Z,96590.69
2023-12-12T08:46:45.327Z,96549.19
2023-12-12T08:49:13.145Z,96477.91
2023-12-12T08:51:40.755Z,96460.66
2023-12-12T08:54:07.830Z,96471.44
2023-12-12T08:56:34.843Z,96571.88
2023-12-12T08:59:01.798Z,96517.41
2023-12-12T09:01:28.886Z,96530.94
2023-12-12T09:03:56.144Z,96516.25
2023-12-12T09:06:23.522Z,96511.22
2023-12-12T09:08:50.503Z,96563.06
2023-12-12T09:11:17.427Z,96532.41
2023-12-12T09:13:45.080Z,96533.69
2023-12-12T09:16:12.562Z,96464.00
2023-12-12T09:18:39.737Z,96502.88
2023-12-12T09:21:08.211Z,96529.19
2023-12-12T09:23:35.949Z,96556.13
2023-12-12T09:26:03.114Z,96589.34
2023-12-12T09:28:30.106Z,96623.53
2023-12-12T09:30:57.284Z,96624.88
2023-12-12T09:33:24.363Z,96607.50
2023-12-12T09:35:51.504Z,96601.97
2023-12-12T09:38:18.490Z,96590.22
2023-12-12T09:40:45.473Z,96621.94
2023-12-12T09:43:13.567Z,96629.28
2023-12-12T09:45:45.217Z,96626.50
2023-12-12T09:48:12.381Z,96601.31
2023-12-12T10:20:52.791Z,97383.81
2023-12-12T10:23:19.776Z,97291.41
2023-12-12T10:25:51.529Z,97200.22
2023-12-12T10:28:20.350Z,97071.75
2023-12-12T10:30:52.592Z,96959.25
2023-12-12T10:33:19.693Z,96881.09
2023-12-12T10:35:46.809Z,96821.06
2023-12-12T10:38:13.740Z,96785.56
2023-12-12T10:40:40.744Z,96796.72
2023-12-12T10:43:09.391Z,96754.16
2023-12-12T10:45:38.425Z,96769.31
2023-12-12T10:48:07.182Z,96766.63
2023-12-12T10:50:35.728Z,96763.63
2023-12-12T10:53:04.429Z,96745.16
2023-12-12T10:55:32.909Z,96663.06
2023-12-12T10:58:00.158Z,96633.22
2023-12-12T11:00:27.941Z,96589.22
2023-12-12T11:02:55.898Z,96545.91
2023-12-12T11:05:25.471Z,96511.13
2023-12-12T11:07:53.243Z,96486.44
2023-12-12T11:10:21.437Z,96490.94
2023-12-12T11:12:53.465Z,96461.97
2023-12-12T11:15:21.595Z,96449.06
2023-12-12T11:17:49.097Z,96444.84
2023-12-12T11:20:17.205Z,96436.59
2023-12-12T11:22:46.487Z,96440.94
2023-12-12T11:25:21.709Z,96439.56
2023-12-12T11:27:50.367Z,96418.19
2023-12-12T11:30:19.274Z,96398.75
2023-12-12T11:32:46.779Z,96414.88
2023-12-12T11:35:27.401Z,96403.28
2023-12-12T11:37:55.515Z,96392.88
2023-12-12T11:40:24.024Z,96388.94
2023-12-12T11:42:53.323Z,96402.34
2023-12-12T11:45:34.014Z,96395.69
2023-12-12T11:48:02.280Z,96381.28
2023-12-12T11:50:29.336Z,96382.78
2023-12-12T11:52:57.980Z,96380.53
2023-12-12T11:55:36.655Z,96386.81
2023-12-12T11:58:04.879Z,96391.41
2023-12-12T12:00:32.723Z,96392.78
2023-12-12T12:03:01.607Z,96409.38
2023-12-12T12:05:29.103Z,96396.25
2023-12-12T12:07:59.235Z,96417.16
2023-12-12T12:10:26.827Z,96406.38
2023-12-12T12:12:53.876Z,96400.84
2023-12-12T12:15:20.978Z,96423.22
2023-12-12T12:17:48.123Z,96414.06
2023-12-12T12:20:15.366Z,96410.88
2023-12-12T12:22:43.487Z,96413.44
2023-12-12T12:25:10.836Z,96415.97
2023-12-12T12:27:51.500Z,96407.44
2023-12-12T12:30:19.343Z,96412.31
2023-12-12T12:33:02.336Z,96396.06
2023-12-12T12:35:29.619Z,96380.97
2023-12-12T12:37:58.650Z,96375.88
2023-12-12T12:40:33.289Z,96380.13
2023-12-12T12:43:02.244Z,96382.50
2023-12-12T12:45:29.299Z,96386.22
2023-12-12T12:47:59.042Z,96378.78
2023-12-12T12:50:26.314Z,96379.69
2023-12-12T12:52:53.289Z,96371.00
2023-12-12T12:55:20.620Z,96379.16
2023-12-12T12:57:47.665Z,96378.59
2023-12-12T13:00:15.008Z,96410.19
2023-12-12T13:02:41.970Z,96417.28
2023-12-12T13:05:09.427Z,96392.44
2023-12-12T13:07:36.520Z,96400.09
2023-12-12T13:10:03.793Z,96393.88
2023-12-12T13:12:31.040Z,96390.78
2023-12-12T13:14:58.145Z,96393.88
2023-12-12T13:17:25.110Z,96392.28
2023-12-12T13:19:52.247Z,96392.47
2023-12-12T13:22:19.223Z,96400.00
2023-12-12T13:24:46.420Z,96412.75
2023-12-12T13:27:13.763Z,96417.63
2023-12-12T13:29:40.586Z,96427.47
2023-12-12T13:32:07.719Z,96436.63
2023-12-12T13:34:35.033Z,96441.69
2023-12-12T13:37:01.994Z,96442.50
2023-12-12T13:39:28.861Z,96476.00
2023-12-12T13:41:55.719Z,96481.66
2023-12-12T13:44:22.763Z,96484.63
2023-12-12T13:46:50.117Z,96537.91
2023-12-12T13:49:17.074Z,96524.13
2023-12-12T13:51:47.603Z,96566.00
2023-12-12T13:54:15.308Z,96625.16
2023-12-12T13:56:42.352Z,96688.16
2023-12-12T13:59:09.397Z,96734.47
2023-12-12T14:01:36.631Z,96795.44
2023-12-12T14:04:04.085Z,96811.47
2023-12-12T14:06:31.193Z,96772.13
2023-12-12T14:08:58.084Z,96764.28
2023-12-12T14:11:26.489Z,96807.78
2023-12-12T14:13:53.737Z,96838.84
2023-12-12T14:16:28.140Z,96888.13
2023-12-12T14:18:57.238Z,96911.94
2023-12-12T14:21:24.312Z,96916.19
2023-12-12T14:23:51.195Z,96952.53
2023-12-12T14:26:18.988Z,96958.22
2023-12-12T14:28:50.117Z,96957.19
2023-12-12T14:31:18.172Z,96884.47
2023-12-12T14:33:45.626Z,96898.38
2023-12-12T14:36:12.601Z,96880.91
2023-12-12T14:38:39.479Z,96947.25
2023-12-12T14:41:06.583Z,96992.06
2023-12-12T14:43:33.770Z,96893.56
2023-12-12T14:46:01.053Z,96852.16
2023-12-12T14:48:29.919Z,96914.31
2023-12-12T14:50:56.801Z,96870.38
2023-12-12T14:53:23.691Z,96863.22
2023-12-12T14:55:50.712Z,96850.59
2023-12-12T14:58:17.900Z,96782.09
2023-12-12T15:00:44.856Z,96816.13
2023-12-12T15:03:11.826Z,96959.72
2023-12-12T15:05:38.764Z,97057.72
2023-12-12T15:08:05.703Z,97104.59
2023-12-12T15:10:32.982Z,97091.06
2023-12-12T15:12:59.880Z,97129.69
2023-12-12T15:15:26.733Z,97197.09
2023-12-12T15:17:54.228Z,97232.88
2023-12-12T15:20:21.228Z,97263.97
2023-12-12T15:22:48.403Z,97262.94
2023-12-12T15:25:21.757Z,97209.72
2023-12-12T15:28:22.900Z,97137.69
2023-12-12T15:30:42.225Z,97099.31
2023-12-12T15:33:09.173Z,97065.72
2023-12-12T15:35:36.675Z,97108.09
2023-12-12T15:38:03.578Z,97140.19
2023-12-12T15:40:30.532Z,97100.28
2023-12-12T15:42:57.358Z,96990.34
2023-12-12T15:45:24.202Z,96930.97
2023-12-12T15:47:51.068Z,96906.31
2023-12-12T15:50:18.197Z,96989.13
2023-12-12T15:52:45.247Z,96958.41
2023-12-12T15:55:12.253Z,97004.25
2023-12-12T15:57:39.061Z,97060.38
2023-12-12T16:00:13.931Z,97119.03
2023-12-12T16:02:42.224Z,97128.88
2023-12-12T16:05:12.109Z,97113.00
2023-12-12T16:07:39.486Z,97107.34
2023-12-12T16:10:08.368Z,97168.69
2023-12-12T16:12:38.855Z,97188.59
2023-12-12T16:15:06.592Z,97207.59
2023-12-12T16:17:36.734Z,97222.16
2023-12-12T16:20:07.315Z,97246.53
2023-12-12T16:22:35.392Z,97246.66
2023-12-12T16:25:03.946Z,97272.97
2023-12-12T16:27:30.966Z,97297.72
2023-12-12T16:29:58.255Z,97311.94
2023-12-12T16:32:25.178Z,97318.25
2023-12-12T16:34:53.135Z,97339.06
2023-12-12T16:37:20.285Z,97369.22
2023-12-12T16:39:47.187Z,97393.28
2023-12-12T16:42:16.075Z,97385.19
2023-12-12T16:44:43.692Z,97317.09
2023-12-12T16:47:10.902Z,97286.94
2023-12-12T16:49:38.168Z,97273.81
2023-12-12T16:52:05.336Z,97287.44
2023-12-12T16:54:32.404Z,97303.25
2023-12-12T16:57:00.187Z,97335.59
2023-12-12T16:59:30.146Z,97352.88
2023-12-12T17:01:58.194Z,97417.63
2023-12-12T17:04:28.875Z,97493.06
2023-12-12T17:06:56.277Z,97558.44
2023-12-12T17:09:23.295Z,97572.16
2023-12-12T17:11:50.477Z,97559.75
2023-12-12T17:14:17.560Z,97517.78
2023-12-12T17:16:45.364Z,97522.28
2023-12-12T17:19:13.300Z,97517.72
2023-12-12T17:21:40.346Z,97499.69
2023-12-12T17:24:07.604Z,97450.34
2023-12-12T17:26:34.593Z,97446.78
2023-12-12T17:29:01.515Z,97442.16
2023-12-12T17:31:28.754Z,97449.91
2023-12-12T17:33:55.870Z,97448.13
2023-12-12T17:36:25.403Z,97437.97
2023-12-12T17:38:52.274Z,97454.31
2023-12-12T17:41:19.101Z,97461.25
2023-12-12T17:43:46.143Z,97461.28
2023-12-12T17:46:13.722Z,97449.53
2023-12-12T17:48:41.106Z,97451.84
2023-12-12T17:51:08.144Z,97447.63
2023-12-12T17:53:35.480Z,97459.97
2023-12-12T17:56:02.819Z,97473.09
2023-12-12T17:58:29.846Z,97471.78
2023-12-12T18:00:57.004Z,97481.19
2023-12-12T18:03:24.059Z,97492.41
2023-12-12T18:05:52.795Z,97509.47
2023-12-12T18:08:19.874Z,97515.13
2023-12-12T18:10:46.905Z,97525.56
2023-12-12T18:13:14.053Z,97542.59
2023-12-12T18:15:41.048Z,97531.63
2023-12-12T18:18:11.396Z,97539.63
2023-12-12T18:20:38.880Z,97532.16
2023-12-12T18:23:42.931Z,97522.44
2023-12-12T18:26:32.406Z,97514.31
2023-12-12T18:29:01.662Z,97494.16
2023-12-12T18:31:31.086Z,97481.97
2023-12-12T18:33:59.096Z,97473.72
2023-12-12T18:36:26.304Z,97479.28
2023-12-12T18:38:53.629Z,97475.03
2023-12-12T18:41:24.262Z,97480.81
2023-12-12T18:43:51.402Z,97490.06
2023-12-12T18:46:18.775Z,97510.66
2023-12-12T18:48:45.971Z,97500.56
2023-12-12T18:51:13.144Z,97484.09
2023-12-12T18:53:40.496Z,97475.38
2023-12-12T18:56:09.399Z,97489.59
2023-12-12T18:58:37.042Z,97485.97
2023-12-12T19:01:05.991Z,97487.97
2023-12-12T19:03:33.101Z,97492.38
2023-12-12T19:06:00.351Z,97505.28
2023-12-12T19:08:28.885Z,97516.19
2023-12-12T19:10:56.024Z,97522.34
2023-12-12T19:13:24.862Z,97518.78
2023-12-12T19:15:51.863Z,97518.28
2023-12-12T19:18:19.206Z,97490.06
2023-12-12T19:20:47.236Z,97445.41
2023-12-12T19:23:14.210Z,97413.13
2023-12-12T19:25:41.196Z,97408.44
2023-12-12T19:28:08.183Z,97435.25
2023-12-12T19:30:38.806Z,97423.44
2023-12-12T19:33:09.393Z,97389.16
2023-12-12T19:35:39.052Z,97377.03
2023-12-12T19:38:07.507Z,97389.56
2023-12-12T19:40:54.653Z,97378.75
2023-12-12T19:43:30.049Z,97367.34
2023-12-12T19:45:57.020Z,97359.25
2023-12-12T19:48:24.241Z,97376.47
2023-12-12T19:50:52.167Z,97399.22
2023-12-12T19:53:19.098Z,97448.16
2023-12-12T19:55:46.191Z,97491.91
2023-12-12T19:58:13.229Z,97579.75
2023-12-12T20:00:40.601Z,97614.75
2023-12-12T20:03:07.605Z,97623.63
2023-12-12T20:05:34.780Z,97646.59
2023-12-12T20:08:02.030Z,97628.50
2023-12-12T20:10:34.156Z,97603.78
2023-12-12T20:13:03.109Z,97626.47
2023-12-12T20:15:32.451Z,97606.84
2023-12-12T20:17:59.435Z,97580.44
2023-12-12T20:20:26.616Z,97624.00
2023-12-12T20:22:56.642Z,97668.59
2023-12-12T20:25:25.592Z,97727.63
2023-12-12T20:27:52.563Z,97717.84
2023-12-12T20:30:19.498Z,97563.88
2023-12-12T20:32:46.924Z,97475.53
2023-12-12T20:35:14.423Z,97434.59
2023-12-12T20:37:41.412Z,97431.75
2023-12-12T20:40:10.038Z,97421.75
2023-12-12T20:42:38.350Z,97425.56
2023-12-12T20:45:07.656Z,97449.09
2023-12-12T20:47:35.767Z,97448.09
2023-12-12T20:50:06.282Z,97460.84
2023-12-12T20:52:33.327Z,97524.44
2023-12-12T20:55:02.041Z,97567.66
2023-12-12T20:57:29.031Z,97602.91
2023-12-12T20:59:56.130Z,97602.47
2023-12-12T21:02:23.079Z,97716.78
2023-12-12T21:04:52.885Z,97825.50
2023-12-12T21:07:21.819Z,97883.41
2023-12-12T21:09:48.787Z,97886.59
2023-12-12T21:12:16.178Z,97847.63
2023-12-12T21:14:43.089Z,97849.59
2023-12-12T21:17:09.978Z,97855.97
2023-12-12T21:19:37.132Z,97907.41
2023-12-12T21:22:04.530Z,97946.19
2023-12-12T21:24:31.395Z,97920.13
2023-12-12T21:27:00.539Z,97988.69
2023-12-12T21:29:27.441Z,97984.13
2023-12-12T21:31:54.384Z,97961.47
2023-12-12T21:34:21.440Z,97967.72
2023-12-12T21:36:48.463Z,97908.69
2023-12-12T21:39:15.348Z,97821.88
2023-12-12T21:41:42.271Z,97790.88
2023-12-12T21:44:09.112Z,97833.69
2023-12-12T21:46:36.055Z,97828.19
2023-12-12T21:49:03.081Z,97810.25
2023-12-12T21:51:30.020Z,97802.13
2023-12-12T21:53:56.892Z,97786.47
2023-12-12T21:56:23.891Z,97759.63
2023-12-12T21:58:50.817Z,97740.16
2023-12-12T22:01:18.121Z,97746.34
2023-12-12T22:03:45.139Z,97784.25
2023-12-12T22:06:12.198Z,97744.94
2023-12-12T22:08:39.457Z,97772.97
2023-12-12T22:11:22.416Z,97712.03
2023-12-12T22:13:50.029Z,97657.41
2023-12-12T22:16:20.499Z,97668.53
2023-12-12T22:18:47.511Z,97675.94
2023-12-12T22:21:14.431Z,97705.69
2023-12-12T22:23:41.324Z,97757.53
2023-12-12T22:26:08.228Z,97818.69
2023-12-12T22:28:35.123Z,97860.91
2023-12-12T22:31:02.010Z,97787.41
2023-12-12T22:33:28.874Z,97754.97
2023-12-12T22:35:55.800Z,97732.81
2023-12-12T22:38:23.827Z,97696.09
2023-12-12T22:40:50.987Z,97670.69
2023-12-12T22:43:17.948Z,97687.84
2023-12-12T22:45:45.045Z,97615.34
2023-12-12T22:48:12.019Z,97547.41
2023-12-12T22:50:39.604Z,97509.09
2023-12-12T22:53:07.348Z,97518.25
2023-12-12T22:55:34.259Z,97537.50
2023-12-12T22:58:01.164Z,97495.50
2023-12-12T23:00:34.361Z,97447.09
2023-12-12T23:03:01.382Z,97398.66
2023-12-12T23:05:28.604Z,97378.19
2023-12-12T23:07:55.738Z,97361.16
2023-12-12T23:10:22.638Z,97340.31
2023-12-12T23:12:49.604Z,97333.91
2023-12-12T23:15:16.480Z,97363.38
2023-12-12T23:17:43.414Z,97395.06
2023-12-12T23:20:10.621Z,97394.66
2023-12-12T23:22:37.518Z,97406.94
2023-12-12T23:25:06.104Z,97459.72
2023-12-12T23:27:33.183Z,97459.47
2023-12-12T23:30:00.871Z,97445.22
2023-12-12T23:32:27.679Z,97355.84
2023-12-12T23:34:54.565Z,97285.63
2023-12-12T23:37:24.144Z,97244.09
2023-12-12T23:39:51.516Z,97233.72
2023-12-12T23:42:18.758Z,97204.78
2023-12-12T23:44:45.680Z,97204.50
2023-12-12T23:47:12.701Z,97205.47
2023-12-12T23:49:41.336Z,97183.22
2023-12-12T23:52:11.254Z,97204.66
2023-12-12T23:54:38.204Z,97228.19
2023-12-12T23:57:05.241Z,97240.78
2023-12-12T23:59:32.663Z,97277.97
